Thursday, July 19, 2018, 5:46 AM GMT
Back to Local

CYMX, Montreal / Mirabel

Location: , , Canada Lat: 45.683
Local Time: 5:46 AM GMT ( 5:46 GMT) Lon: -74.033
Time Zone: GMT Elev: 269 ft

Show me the last for .
Show Coded

Time T Td Feel RH Dir Speed Gust Alt SLP Vis Weather Sky Remarks
2018-07-19 05:00 54 48 - 81 280° 3 - 30.03 30.03 25 FEW250 None
2018-07-19 04:00 55 48 - 76 270° 5 - 30.02 30.03 25 FEW250 None
2018-07-19 03:00 57 50 - 76 290° 5 - 30.02 30.03 25 FEW250 None
2018-07-19 02:00 61 48 - 63 310° 3 - 30.02 30.02 25 FEW250 None
2018-07-19 01:00 66 46 - 48 310° 6 - 30.00 30.01 25 FEW250 None
2018-07-19 00:00 70 46 - 43 320° 6 - 29.99 29.99 45 FEW250 None
2018-07-18 23:00 72 45 - 37 310° 6 - 29.98 29.99 45 FEW070 FEW250 None
2018-07-18 22:00 73 45 - 35 300° 6 17 29.97 29.98 45 FEW070 FEW250 None
2018-07-18 21:00 73 45 - 35 330° 9 17 29.97 29.97 45 FEW060 FEW250 None
2018-07-18 20:00 73 43 - 33 300° 8 - 29.97 29.97 45 FEW060 FEW250 None
2018-07-18 19:00 73 45 - 35 340° 5 - 29.97 29.98 45 FEW055 FEW280 None
2018-07-18 18:00 72 48 76 43 320° 8 - 29.98 29.98 45 FEW045 None
2018-07-18 17:00 70 43 - 37 290° 5 - 29.99 30.00 45 FEW040 None
2018-07-18 16:00 70 39 - 32 310° 8 - 30.00 30.01 45 FEW050 None
2018-07-18 15:00 66 43 - 42 260° 3 - 30.01 30.01 45 FEW050 None
2018-07-18 14:00 64 43 - 45 Variable 7 - 30.01 30.02 45 FEW042 FEW280 None
2018-07-18 13:00 63 45 - 51 310° 7 - 30.01 30.02 45 FEW040 None
2018-07-18 12:00 61 46 - 59 310° 7 - 30.01 30.02 45 FEW280 None
2018-07-18 11:00 55 48 - 76 270° 5 - 30.00 30.01 45 CLR None
2018-07-18 10:00 54 48 - 81 260° 5 - 29.98 29.98 45 FEW040 FEW250 None
2018-07-18 09:00 50 48 49 93 280° 3 - 29.95 29.96 45 FEW250 None
2018-07-18 08:00 54 48 - 81 290° 3 - 29.94 29.94 25 FEW250 None
2018-07-18 07:00 55 48 - 76 310° 3 - 29.93 29.93 25 FEW250 None
2018-07-18 06:00 61 48 - 63 350° 5 - 29.91 29.91 25 FEW250 None

Support USWX by starting your Amazon purchase here.